Time;durP1;ratioP1;P1;durP2;ratioP2;P2;SDS_P1;SDS_P2;PMS_P1;PMS_P2;Temp;Humidity;BMP_temperature;BMP_pressure;BME280_temperature;BME280_humidity;BME280_pressure;Samples;Min_cycle;Max_cycle;Signal;HPM_P1;HPM_P2
2022/11/28 00:01:45;;;;;;;17.70;12.95;;;6.30;99.90;;;;;;6095755;23;20036;-81
2022/11/28 00:04:12;;;;;;;17.60;12.20;;;6.30;99.90;;;;;;6090398;23;20032;-81
2022/11/28 00:06:45;;;;;;;18.92;12.57;;;6.30;99.90;;;;;;6095892;23;20025;-81
2022/11/28 00:09:12;;;;;;;17.73;12.40;;;6.30;99.90;;;;;;6120371;23;20017;-81
2022/11/28 00:11:39;;;;;;;19.67;12.38;;;6.30;99.90;;;;;;6119890;23;20064;-82
2022/11/28 00:14:05;;;;;;;19.40;12.23;;;6.30;99.90;;;;;;6096815;23;20083;-80
2022/11/28 00:16:31;;;;;;;20.20;12.27;;;6.30;99.90;;;;;;6095330;23;20013;-81
2022/11/28 00:18:58;;;;;;;19.38;12.93;;;6.50;99.90;;;;;;6095677;23;20638;-81
2022/11/28 00:21:24;;;;;;;17.55;12.55;;;6.20;99.90;;;;;;6094974;23;20021;-80
2022/11/28 00:23:50;;;;;;;21.33;13.18;;;6.20;99.90;;;;;;6073036;23;20467;-81
2022/11/28 00:26:19;;;;;;;19.48;12.43;;;6.20;99.90;;;;;;6118884;23;20021;-81
2022/11/28 00:28:45;;;;;;;20.77;13.10;;;6.30;99.90;;;;;;6095902;23;20093;-81
2022/11/28 00:31:13;;;;;;;16.80;11.27;;;6.30;99.90;;;;;;6094310;23;20517;-80
2022/11/28 00:33:39;;;;;;;17.70;11.98;;;6.50;99.90;;;;;;6073040;23;20022;-80
2022/11/28 00:36:05;;;;;;;20.60;13.18;;;6.30;99.90;;;;;;6072147;23;20021;-81
2022/11/28 00:38:31;;;;;;;20.13;13.02;;;6.30;99.90;;;;;;6096043;23;20167;-81
2022/11/28 00:41:03;;;;;;;20.65;13.50;;;6.70;99.90;;;;;;6120016;23;20100;-81
2022/11/28 00:43:29;;;;;;;19.38;12.80;;;7.40;99.90;;;;;;6118910;23;20056;-80
2022/11/28 00:45:55;;;;;;;19.80;13.05;;;6.70;99.90;;;;;;6072221;23;20022;-81
2022/11/28 00:48:20;;;;;;;17.27;11.82;;;6.90;99.90;;;;;;6119694;23;20021;-80
2022/11/28 00:50:46;;;;;;;19.50;13.45;;;6.30;99.90;;;;;;6095664;23;20184;-80
2022/11/28 00:53:12;;;;;;;20.25;13.68;;;7.00;99.90;;;;;;6095529;23;20144;-80
2022/11/28 00:55:38;;;;;;;20.38;12.90;;;6.70;99.90;;;;;;6047899;23;20026;-80
2022/11/28 00:58:04;;;;;;;19.55;13.32;;;6.70;99.90;;;;;;6095560;23;20092;-81
2022/11/28 01:00:30;;;;;;;18.40;12.40;;;6.30;99.90;;;;;;6094738;23;20017;-80
2022/11/28 01:02:59;;;;;;;19.48;13.15;;;6.30;99.90;;;;;;6119882;23;20124;-80
2022/11/28 01:05:25;;;;;;;19.88;13.30;;;6.30;99.90;;;;;;6095119;23;20602;-80
2022/11/28 01:07:51;;;;;;;20.92;13.95;;;7.30;99.90;;;;;;6095692;23;20025;-81
2022/11/28 01:10:17;;;;;;;17.55;12.40;;;6.30;99.90;;;;;;6095720;23;20018;-82
2022/11/28 01:12:43;;;;;;;19.13;13.02;;;6.30;99.90;;;;;;6072495;23;20025;-81
2022/11/28 01:15:11;;;;;;;19.98;12.45;;;6.30;99.90;;;;;;6120073;23;20025;-81
2022/11/28 01:17:37;;;;;;;18.65;12.52;;;6.30;99.90;;;;;;6096671;23;20017;-80
2022/11/28 01:20:05;;;;;;;18.05;12.10;;;6.30;99.90;;;;;;6120088;23;20018;-81
2022/11/28 01:22:31;;;;;;;19.40;12.82;;;6.30;99.90;;;;;;6122884;23;20191;-81
2022/11/28 01:25:00;;;;;;;17.85;11.95;;;6.90;99.90;;;;;;6102019;23;20084;-80
2022/11/28 01:27:26;;;;;;;22.05;13.93;;;6.30;99.90;;;;;;6098738;23;20021;-81
2022/11/28 01:29:51;;;;;;;20.45;13.50;;;6.30;99.90;;;;;;6095653;23;20336;-80
2022/11/28 01:32:17;;;;;;;18.95;13.45;;;6.30;99.90;;;;;;6071606;23;20072;-81
2022/11/28 01:34:43;;;;;;;19.00;13.20;;;6.30;99.90;;;;;;6119439;23;20017;-81
2022/11/28 01:37:09;;;;;;;20.45;13.30;;;6.30;99.90;;;;;;6095349;23;20026;-81
2022/11/28 01:39:35;;;;;;;22.70;14.45;;;6.30;99.90;;;;;;6118923;23;20024;-80
2022/11/28 01:42:01;;;;;;;23.35;14.93;;;6.30;99.90;;;;;;6071523;23;20333;-81
2022/11/28 01:44:26;;;;;;;25.65;15.52;;;6.30;99.90;;;;;;6094001;23;20017;-81
2022/11/28 01:46:52;;;;;;;22.33;14.30;;;6.60;99.90;;;;;;6119536;23;20029;-81
2022/11/28 01:49:24;;;;;;;20.98;13.93;;;6.30;99.90;;;;;;6071527;23;20013;-81
2022/11/28 01:52:12;;;;;;;21.50;14.95;;;6.30;99.90;;;;;;6096093;23;20049;-81
2022/11/28 01:54:39;;;;;;;25.48;14.95;;;6.30;99.90;;;;;;6094011;23;20819;-81
2022/11/28 01:57:08;;;;;;;22.80;15.00;;;6.30;99.90;;;;;;6070673;23;20096;-81
2022/11/28 01:59:43;;;;;;;22.33;13.93;;;6.40;99.90;;;;;;6095131;23;20347;-80
2022/11/28 02:02:16;;;;;;;23.20;14.60;;;6.30;99.90;;;;;;6095207;23;20025;-80
2022/11/28 02:04:44;;;;;;;22.85;14.38;;;6.30;99.90;;;;;;6094013;23;20036;-81
2022/11/28 02:07:10;;;;;;;22.08;14.95;;;6.30;99.90;;;;;;6094616;23;20096;-80
2022/11/28 02:09:36;;;;;;;24.92;14.73;;;6.30;99.90;;;;;;6118760;23;20055;-80
2022/11/28 02:12:18;;;;;;;21.33;14.02;;;6.30;99.90;;;;;;6095228;23;20100;-81
2022/11/28 02:15:06;;;;;;;21.35;13.30;;;6.30;99.90;;;;;;6119353;23;20022;-81
2022/11/28 02:17:50;;;;;;;22.00;15.18;;;6.30;99.90;;;;;;6118624;23;20033;-81
2022/11/28 02:20:53;;;;;;;21.77;14.45;;;6.30;99.90;;;;;;6095282;23;20032;-81
2022/11/28 02:23:36;;;;;;;18.45;13.63;;;6.30;99.90;;;;;;6093148;23;20021;-80
2022/11/28 02:26:08;;;;;;;20.83;14.07;;;6.40;99.90;;;;;;6119372;23;20017;-80
2022/11/28 02:29:01;;;;;;;20.02;14.00;;;6.40;99.90;;;;;;6094898;23;20049;-81
2022/11/28 02:32:10;;;;;;;19.95;13.95;;;6.40;99.90;;;;;;6094416;23;20022;-81
2022/11/28 02:34:55;;;;;;;19.52;12.98;;;6.40;99.90;;;;;;6025153;23;20015;-80
2022/11/28 02:37:37;;;;;;;19.05;12.85;;;6.40;99.90;;;;;;6091304;23;20072;-81
2022/11/28 02:40:20;;;;;;;18.50;12.70;;;5.40;99.90;;;;;;6119316;23;20021;-81
2022/11/28 02:43:04;;;;;;;18.55;12.75;;;6.40;99.90;;;;;;6118668;23;20083;-80
2022/11/28 02:45:49;;;;;;;20.55;13.18;;;6.50;99.90;;;;;;6093726;23;20025;-81
2022/11/28 02:48:23;;;;;;;18.80;12.45;;;6.40;99.90;;;;;;6094964;23;20053;-81
2022/11/28 02:50:56;;;;;;;20.02;12.95;;;6.40;99.90;;;;;;6119031;23;20096;-80
2022/11/28 02:53:25;;;;;;;18.23;13.00;;;6.40;99.90;;;;;;6118070;23;20061;-80
2022/11/28 02:55:52;;;;;;;19.73;12.43;;;6.80;99.90;;;;;;6120242;23;20021;-80
2022/11/28 02:58:17;;;;;;;18.65;11.93;;;6.40;99.90;;;;;;6096657;23;20022;-82
2022/11/28 03:00:46;;;;;;;18.40;12.93;;;6.50;99.90;;;;;;6072485;23;20067;-81
2022/11/28 03:03:18;;;;;;;17.63;12.68;;;6.50;99.90;;;;;;6120063;23;20032;-81
2022/11/28 03:08:41;;;;;;;21.17;13.00;;;6.50;99.90;;;;;;6162632;23;20615;-86
2022/11/28 03:11:13;;;;;;;19.92;12.43;;;6.50;99.90;;;;;;6151622;23;20349;-87
2022/11/28 03:13:56;;;;;;;18.13;12.85;;;6.50;99.90;;;;;;6125756;23;20028;-86
2022/11/28 03:16:30;;;;;;;17.90;12.40;;;6.50;99.90;;;;;;6150250;23;20104;-86
2022/11/28 03:19:03;;;;;;;17.58;12.20;;;6.60;99.90;;;;;;6151006;23;20167;-87
2022/11/28 03:21:57;;;;;;;19.23;12.98;;;7.70;99.90;;;;;;6127320;23;20025;-86
2022/11/28 03:24:47;;;;;;;18.02;12.32;;;6.70;99.90;;;;;;6126533;23;20130;-85
2022/11/28 03:27:19;;;;;;;16.27;11.30;;;5.80;99.90;;;;;;6127895;23;20140;-85
2022/11/28 03:30:02;;;;;;;16.58;12.52;;;7.10;99.90;;;;;;6151587;23;20047;-86
2022/11/28 03:32:35;;;;;;;16.88;10.65;;;6.70;99.90;;;;;;6152198;23;20357;-87
2022/11/28 03:35:12;;;;;;;15.35;10.57;;;7.00;99.90;;;;;;6126688;23;20457;-86
2022/11/28 03:37:58;;;;;;;15.18;10.70;;;6.60;99.90;;;;;;6151717;23;20024;-87
2022/11/28 03:40:33;;;;;;;16.00;10.60;;;6.70;99.90;;;;;;6152739;23;20025;-85
2022/11/28 03:43:10;;;;;;;16.20;11.17;;;6.70;99.90;;;;;;6153140;23;20020;-87
2022/11/28 03:45:45;;;;;;;16.35;10.95;;;6.70;99.90;;;;;;6151383;23;20025;-86
2022/11/28 03:48:17;;;;;;;19.73;12.23;;;6.10;99.90;;;;;;6152040;23;20025;-87
2022/11/28 03:50:54;;;;;;;16.52;11.18;;;6.80;99.90;;;;;;6151719;23;20100;-85
2022/11/28 03:53:33;;;;;;;18.10;11.20;;;6.90;99.90;;;;;;6151566;23;20025;-87
2022/11/28 03:56:09;;;;;;;20.92;12.43;;;6.80;99.90;;;;;;6150489;23;20021;-87
2022/11/28 03:58:59;;;;;;;18.63;12.15;;;5.80;99.90;;;;;;6151331;23;20023;-87
2022/11/28 04:01:48;;;;;;;17.58;11.52;;;7.00;99.90;;;;;;6150432;23;20028;-87
2022/11/28 04:04:33;;;;;;;18.50;10.95;;;6.80;99.90;;;;;;6153400;23;20516;-87
2022/11/28 04:07:28;;;;;;;16.48;11.60;;;6.90;99.90;;;;;;6128881;23;20043;-87
2022/11/28 04:10:14;;;;;;;17.92;10.45;;;6.80;99.90;;;;;;6113611;23;20021;-86
2022/11/28 04:13:03;;;;;;;17.42;10.60;;;6.80;99.90;;;;;;6126324;23;20028;-85
2022/11/28 04:15:49;;;;;;;18.25;10.43;;;6.80;99.90;;;;;;6106080;23;20059;-88
2022/11/28 04:18:21;;;;;;;16.92;10.73;;;6.70;99.90;;;;;;6151478;23;20017;-86
2022/11/28 04:20:50;;;;;;;17.08;9.50;;;6.90;99.90;;;;;;6150740;23;20152;-86
2022/11/28 04:23:20;;;;;;;17.05;10.18;;;7.50;99.90;;;;;;6127071;23;20110;-87
2022/11/28 04:26:06;;;;;;;16.38;9.32;;;6.90;99.90;;;;;;6150922;23;20288;-86
2022/11/28 04:28:38;;;;;;;15.63;9.15;;;6.90;99.90;;;;;;6150986;23;20028;-88
2022/11/28 04:31:06;;;;;;;15.77;9.07;;;7.00;99.90;;;;;;6150852;23;20017;-87
2022/11/28 04:33:38;;;;;;;19.08;9.57;;;6.90;99.90;;;;;;6151443;23;20016;-87
2022/11/28 04:36:05;;;;;;;18.40;8.85;;;7.40;99.90;;;;;;6127106;23;20025;-87
2022/11/28 04:38:33;;;;;;;17.95;9.70;;;8.40;99.90;;;;;;6149092;23;20457;-87
2022/11/28 04:41:05;;;;;;;17.48;9.23;;;6.30;99.90;;;;;;6126258;23;20021;-87
2022/11/28 04:43:49;;;;;;;18.40;9.77;;;7.10;99.90;;;;;;6149938;23;20024;-88
2022/11/28 04:46:25;;;;;;;15.38;8.75;;;7.50;99.90;;;;;;6150523;23;20028;-86
2022/11/28 04:48:51;;;;;;;;;;;7.00;99.90;;;;;;6151981;23;20024;-87
2022/11/28 04:51:26;;;;;;;15.75;8.75;;;8.00;99.90;;;;;;6151377;23;19950;-86
2022/11/28 04:54:10;;;;;;;17.67;9.35;;;6.20;99.90;;;;;;6151581;23;20083;-86
2022/11/28 04:56:45;;;;;;;15.20;8.55;;;7.00;99.90;;;;;;6125724;23;20017;-87
2022/11/28 04:59:13;;;;;;;15.15;8.68;;;7.00;99.90;;;;;;6151788;23;20460;-86
2022/11/28 05:01:45;;;;;;;15.50;9.45;;;7.00;99.90;;;;;;6150435;23;20448;-87
2022/11/28 05:04:16;;;;;;;13.75;8.00;;;7.00;99.90;;;;;;6150331;23;20083;-87
2022/11/28 05:06:42;;;;;;;14.30;8.77;;;7.00;99.90;;;;;;6151093;23;20437;-88
2022/11/28 05:09:14;;;;;;;15.75;8.80;;;7.00;99.90;;;;;;6126606;23;20025;-88
2022/11/28 05:11:40;;;;;;;12.65;8.45;;;7.00;99.90;;;;;;6151613;23;20009;-89
2022/11/28 05:14:06;;;;;;;15.30;8.90;;;7.60;99.90;;;;;;6151837;23;20369;-87
2022/11/28 05:16:32;;;;;;;14.77;8.32;;;7.10;99.90;;;;;;6150848;23;20402;-88
2022/11/28 05:19:00;;;;;;;15.07;8.25;;;7.00;99.90;;;;;;6126113;23;20017;-89
2022/11/28 05:21:26;;;;;;;15.13;7.97;;;8.00;99.90;;;;;;6126584;23;20380;-87
2022/11/28 05:23:52;;;;;;;16.70;9.05;;;7.10;99.90;;;;;;6151132;23;20407;-88
2022/11/28 05:26:20;;;;;;;14.32;8.57;;;7.10;99.90;;;;;;6125372;23;20460;-87
2022/11/28 05:28:50;;;;;;;16.05;8.63;;;7.40;99.90;;;;;;6149993;23;20031;-87
2022/11/28 05:31:18;;;;;;;14.45;7.82;;;7.00;99.90;;;;;;6151393;23;20021;-87
2022/11/28 05:33:46;;;;;;;16.20;8.93;;;7.60;99.90;;;;;;6151211;23;20504;-88
2022/11/28 05:36:15;;;;;;;15.80;8.77;;;7.10;99.90;;;;;;6150755;23;20028;-88
2022/11/28 05:38:42;;;;;;;15.55;8.73;;;7.90;99.90;;;;;;6149165;23;20100;-88
2022/11/28 05:41:09;;;;;;;15.98;9.00;;;7.10;99.90;;;;;;6151136;23;20028;-87
2022/11/28 05:43:35;;;;;;;15.70;9.07;;;7.10;99.90;;;;;;6100281;23;20028;-88
2022/11/28 05:46:05;;;;;;;14.05;8.77;;;7.30;99.90;;;;;;6124466;23;20021;-87
2022/11/28 05:48:31;;;;;;;16.10;8.82;;;7.20;99.90;;;;;;6101396;23;20057;-87
2022/11/28 05:50:59;;;;;;;15.48;9.43;;;7.30;99.90;;;;;;6100904;23;20021;-88
2022/11/28 05:53:25;;;;;;;14.13;8.35;;;7.20;99.90;;;;;;6125007;23;20028;-88
2022/11/28 05:55:51;;;;;;;13.30;7.80;;;7.40;99.90;;;;;;6148122;23;20021;-88
2022/11/28 05:58:16;;;;;;;13.77;7.45;;;7.30;99.90;;;;;;6124940;23;20083;-87
2022/11/28 06:00:42;;;;;;;14.00;8.02;;;7.60;99.90;;;;;;6124471;23;20021;-87
2022/11/28 06:03:14;;;;;;;15.73;8.40;;;8.10;99.90;;;;;;6125452;23;20044;-87
2022/11/28 06:05:48;;;;;;;12.95;7.50;;;8.30;99.90;;;;;;6147286;23;20025;-87
2022/11/28 06:08:14;;;;;;;13.65;7.90;;;7.40;99.90;;;;;;6144998;23;20021;-88
2022/11/28 06:10:40;;;;;;;12.88;8.05;;;7.50;99.90;;;;;;6118613;23;20506;-87
2022/11/28 06:13:06;;;;;;;12.60;7.85;;;7.40;99.90;;;;;;6121345;23;20053;-87
2022/11/28 06:15:34;;;;;;;12.27;8.30;;;8.20;99.90;;;;;;6146123;23;20076;-87
2022/11/28 06:18:00;;;;;;;13.80;7.68;;;7.50;99.90;;;;;;6121040;23;20017;-88
2022/11/28 06:20:29;;;;;;;14.30;8.98;;;7.40;99.90;;;;;;6146158;23;20523;-87
2022/11/28 06:22:55;;;;;;;12.88;7.45;;;7.50;99.90;;;;;;6144801;23;20033;-88
2022/11/28 06:25:21;;;;;;;12.10;7.40;;;7.70;99.90;;;;;;6144606;23;20048;-88
2022/11/28 06:27:47;;;;;;;16.60;8.13;;;7.60;99.90;;;;;;6119761;23;20066;-88
2022/11/28 06:30:13;;;;;;;13.35;7.85;;;7.50;99.90;;;;;;6121340;23;20060;-88
2022/11/28 06:32:39;;;;;;;15.10;8.60;;;7.60;99.90;;;;;;6145356;23;20021;-87
2022/11/28 06:35:05;;;;;;;15.45;8.57;;;7.60;99.90;;;;;;6146528;23;20056;-86
2022/11/28 06:37:31;;;;;;;15.73;9.25;;;8.70;99.90;;;;;;6146674;23;20057;-87
2022/11/28 06:39:58;;;;;;;16.63;9.63;;;6.60;99.90;;;;;;6145960;23;20064;-87
2022/11/28 06:42:23;;;;;;;18.30;8.82;;;7.70;99.90;;;;;;6098614;23;20100;-88
2022/11/28 06:44:49;;;;;;;24.77;11.27;;;7.10;99.90;;;;;;6120749;23;20160;-87
2022/11/28 06:47:25;;;;;;;23.88;11.23;;;7.60;99.90;;;;;;6122217;23;20032;-87
2022/11/28 06:49:50;;;;;;;21.10;10.73;;;7.70;99.90;;;;;;6123525;23;20326;-87
2022/11/28 06:52:19;;;;;;;19.95;10.65;;;7.70;99.90;;;;;;6121855;23;20025;-88
2022/11/28 06:54:45;;;;;;;20.58;11.48;;;7.60;99.90;;;;;;6119845;23;20018;-88
2022/11/28 06:57:11;;;;;;;23.42;12.48;;;7.70;99.90;;;;;;6122560;23;20025;-88
2022/11/28 06:59:37;;;;;;;22.27;11.32;;;7.70;99.90;;;;;;6122108;23;20025;-87
2022/11/28 07:02:03;;;;;;;21.08;12.90;;;7.60;99.90;;;;;;6122634;23;20025;-86
2022/11/28 07:04:29;;;;;;;24.17;12.05;;;7.70;99.90;;;;;;6147713;23;20025;-87
2022/11/28 07:06:57;;;;;;;22.20;12.20;;;6.70;99.90;;;;;;6125194;23;20027;-88
2022/11/28 07:09:25;;;;;;;25.85;13.05;;;7.60;99.90;;;;;;6104740;23;20330;-87
2022/11/28 07:11:51;;;;;;;21.75;11.98;;;7.70;99.90;;;;;;6104597;23;20079;-87
2022/11/28 07:14:19;;;;;;;23.30;12.13;;;7.70;99.90;;;;;;6153904;23;20017;-88
2022/11/28 07:16:46;;;;;;;24.20;12.82;;;8.30;99.90;;;;;;6128874;23;20043;-87
2022/11/28 07:19:12;;;;;;;22.42;12.48;;;7.80;99.90;;;;;;6153657;23;20020;-88
2022/11/28 07:21:44;;;;;;;22.52;12.98;;;7.70;99.90;;;;;;6132115;23;20028;-88
2022/11/28 07:24:12;;;;;;;22.98;12.40;;;7.80;99.90;;;;;;6130094;23;20107;-87
2022/11/28 07:26:40;;;;;;;26.50;13.40;;;7.80;99.90;;;;;;6127912;23;20033;-88
2022/11/28 07:29:08;;;;;;;29.02;13.50;;;7.70;99.90;;;;;;6152429;23;20017;-88
2022/11/28 07:31:36;;;;;;;24.25;13.38;;;8.00;99.90;;;;;;6127666;23;20021;-88
2022/11/28 07:34:04;;;;;;;28.08;13.85;;;9.50;99.90;;;;;;6125503;23;20024;-83
2022/11/28 07:36:33;;;;;;;25.40;13.85;;;7.70;99.90;;;;;;6120672;23;20021;-87
2022/11/28 07:39:01;;;;;;;23.48;13.23;;;7.80;99.90;;;;;;6149459;23;20082;-85
2022/11/28 07:41:27;;;;;;;24.88;13.35;;;7.80;99.90;;;;;;6123522;23;20099;-85
2022/11/28 07:43:59;;;;;;;27.85;13.85;;;8.50;99.90;;;;;;6123935;23;20028;-86
2022/11/28 07:46:25;;;;;;;31.58;14.82;;;8.00;99.90;;;;;;6149971;23;20013;-84
2022/11/28 07:48:51;;;;;;;26.88;14.35;;;7.80;99.90;;;;;;6148163;23;20765;-85
2022/11/28 07:51:23;;;;;;;28.58;13.80;;;7.80;99.90;;;;;;6124236;23;20029;-84
2022/11/28 07:53:49;;;;;;;24.30;13.82;;;6.50;99.90;;;;;;6147529;23;20096;-85
2022/11/28 07:56:18;;;;;;;33.65;15.80;;;7.90;99.90;;;;;;6124208;23;20025;-85
2022/11/28 07:58:45;;;;;;;30.92;16.15;;;7.90;99.90;;;;;;6148589;23;20017;-84
2022/11/28 08:01:17;;;;;;;34.85;16.15;;;9.30;99.90;;;;;;6150709;23;20028;-84
2022/11/28 08:03:46;;;;;;;31.00;15.27;;;7.90;99.90;;;;;;6149102;23;20025;-85
2022/11/28 08:06:13;;;;;;;34.33;17.45;;;7.90;99.90;;;;;;6124732;23;20032;-85
2022/11/28 08:08:39;;;;;;;39.15;17.15;;;8.10;99.90;;;;;;6148321;23;20021;-85
2022/11/28 08:11:07;;;;;;;37.28;17.38;;;9.20;99.90;;;;;;6121882;23;20017;-84
2022/11/28 08:13:34;;;;;;;32.10;16.17;;;8.00;99.90;;;;;;6123584;23;20017;-84
2022/11/28 08:16:08;;;;;;;35.58;16.52;;;8.00;99.90;;;;;;6148054;23;20095;-85
2022/11/28 08:18:34;;;;;;;29.45;15.15;;;8.10;99.90;;;;;;6148697;23;20048;-84
2022/11/28 08:21:13;;;;;;;28.73;14.05;;;8.00;99.90;;;;;;6123753;23;20032;-84
2022/11/28 08:23:39;;;;;;;29.55;14.50;;;8.20;99.90;;;;;;6150436;23;20024;-84
2022/11/28 08:26:08;;;;;;;28.20;14.23;;;8.20;99.90;;;;;;6123155;23;20020;-84
2022/11/28 08:28:34;;;;;;;32.20;14.65;;;8.20;99.90;;;;;;6123778;23;20024;-86
2022/11/28 08:31:11;;;;;;;36.80;14.95;;;8.20;99.90;;;;;;6148455;23;20021;-86
2022/11/28 08:33:37;;;;;;;32.53;15.85;;;8.20;99.90;;;;;;6151111;23;20017;-86
2022/11/28 08:36:05;;;;;;;32.38;14.65;;;8.20;99.90;;;;;;6128926;23;20021;-85
2022/11/28 08:38:53;;;;;;;30.90;14.35;;;8.20;99.90;;;;;;6156189;23;20017;-90
2022/11/28 08:41:21;;;;;;;33.28;13.82;;;8.30;99.90;;;;;;6132493;23;20017;-86
2022/11/28 08:44:00;;;;;;;32.95;14.27;;;8.30;99.90;;;;;;6153268;23;20119;-92
2022/11/28 08:46:25;;;;;;;28.55;13.35;;;7.30;99.90;;;;;;6103726;23;20020;-86
2022/11/28 08:48:54;;;;;;;31.92;13.32;;;8.30;99.90;;;;;;6125294;23;20459;-86
2022/11/28 08:51:22;;;;;;;30.05;11.88;;;8.30;99.90;;;;;;6123491;23;20021;-86
2022/11/28 08:53:51;;;;;;;25.58;11.93;;;8.40;99.90;;;;;;6152362;23;20032;-86
2022/11/28 08:56:18;;;;;;;28.25;11.95;;;8.60;99.90;;;;;;6127438;23;20108;-87
2022/11/28 08:58:43;;;;;;;27.95;11.13;;;8.70;99.90;;;;;;6153070;23;20028;-84
2022/11/28 09:01:20;;;;;;;25.77;12.48;;;8.50;99.90;;;;;;6127443;23;20334;-85
2022/11/28 09:03:47;;;;;;;26.77;12.32;;;8.60;99.90;;;;;;6153437;23;20021;-86
2022/11/28 09:06:13;;;;;;;22.73;11.52;;;8.80;99.90;;;;;;6127488;23;20021;-84
2022/11/28 09:08:39;;;;;;;29.80;12.10;;;8.60;99.90;;;;;;6148202;23;20353;-85
2022/11/28 09:11:09;;;;;;;27.77;12.63;;;8.60;99.90;;;;;;6124007;23;20028;-85
2022/11/28 09:13:36;;;;;;;23.00;11.63;;;8.60;99.90;;;;;;6148427;23;20025;-85
2022/11/28 09:16:03;;;;;;;22.80;11.60;;;8.60;99.90;;;;;;6146787;23;20021;-85
2022/11/28 09:18:31;;;;;;;32.00;13.48;;;8.80;99.90;;;;;;6151966;23;20426;-83
2022/11/28 09:21:03;;;;;;;28.23;13.45;;;9.10;99.90;;;;;;6126222;23;20043;-84
2022/11/28 09:23:29;;;;;;;23.45;11.68;;;9.10;99.90;;;;;;6152130;23;20028;-85
2022/11/28 09:25:56;;;;;;;24.70;12.80;;;8.70;99.90;;;;;;6150984;23;20025;-84
2022/11/28 09:28:22;;;;;;;31.27;14.05;;;;;;;;;;6152375;23;20057;-84
2022/11/28 09:30:48;;;;;;;31.58;14.43;;;8.70;99.90;;;;;;6127394;23;20453;-84
2022/11/28 09:33:14;;;;;;;34.45;15.40;;;8.70;99.90;;;;;;6102057;23;20023;-84
2022/11/28 09:35:40;;;;;;;29.92;15.43;;;8.50;99.90;;;;;;6101922;23;20020;-84
2022/11/28 09:38:06;;;;;;;28.70;15.20;;;8.70;99.90;;;;;;6150646;23;20716;-86
2022/11/28 09:40:35;;;;;;;31.00;15.80;;;8.60;99.90;;;;;;6151142;23;20042;-86
2022/11/28 09:43:03;;;;;;;29.00;15.73;;;8.90;99.90;;;;;;6128039;23;20020;-86
2022/11/28 09:45:31;;;;;;;30.85;14.88;;;8.70;99.90;;;;;;6127823;23;20021;-85
2022/11/28 09:48:08;;;;;;;34.17;15.38;;;8.90;99.90;;;;;;6128035;23;20052;-84
2022/11/28 09:50:39;;;;;;;32.88;14.48;;;8.90;99.90;;;;;;6152353;23;20107;-86
2022/11/28 09:53:43;;;;;;;29.33;14.27;;;8.70;99.90;;;;;;6151664;23;20021;-85
2022/11/28 09:56:17;;;;;;;30.50;15.77;;;8.80;99.90;;;;;;6150931;23;20029;-85
2022/11/28 09:59:02;;;;;;;31.85;15.18;;;8.70;99.90;;;;;;6152036;23;20400;-86
2022/11/28 10:01:54;;;;;;;34.63;16.02;;;8.80;99.90;;;;;;6152740;23;20100;-87
2022/11/28 10:04:19;;;;;;;37.83;16.05;;;8.80;99.90;;;;;;6126803;23;20024;-83
2022/11/28 10:06:53;;;;;;;32.97;16.50;;;8.80;99.90;;;;;;6126932;23;20020;-85
2022/11/28 10:09:54;;;;;;;29.50;15.40;;;8.90;99.90;;;;;;6126940;23;20021;-85
2022/11/28 10:12:53;;;;;;;31.83;16.15;;;8.80;99.90;;;;;;6112225;23;20023;-86
2022/11/28 10:15:48;;;;;;;28.80;16.08;;;8.90;99.90;;;;;;6151632;23;20103;-85
2022/11/28 10:18:53;;;;;;;31.00;16.52;;;8.90;99.90;;;;;;6127877;23;20503;-85
2022/11/28 10:21:26;;;;;;;30.35;15.75;;;8.80;99.90;;;;;;6152191;23;20198;-89
2022/11/28 10:23:59;;;;;;;30.33;15.98;;;8.90;99.90;;;;;;6133938;23;20035;-89
2022/11/28 10:26:45;;;;;;;29.48;15.18;;;9.00;99.90;;;;;;6155510;23;20021;-93
2022/11/28 10:29:49;;;;;;;31.17;16.17;;;8.30;99.90;;;;;;6155370;23;20017;-91
2022/11/28 10:32:33;;;;;;;25.27;14.48;;;9.00;99.90;;;;;;6155249;23;20087;-93
2022/11/28 10:35:22;;;;;;;30.33;14.60;;;8.90;99.90;;;;;;6154464;23;20020;-91
2022/11/28 10:37:51;;;;;;;31.83;15.82;;;8.90;99.90;;;;;;6168197;23;20074;-92
2022/11/28 10:40:37;;;;;;;34.25;15.80;;;9.20;99.90;;;;;;6155580;23;20028;-92
2022/11/28 10:43:45;;;;;;;32.78;16.40;;;9.00;99.90;;;;;;6130914;23;20025;-92
2022/11/28 10:46:16;;;;;;;34.13;16.35;;;9.00;99.90;;;;;;6155052;23;20025;-92
2022/11/28 10:48:57;;;;;;;39.60;17.92;;;9.00;99.90;;;;;;6130939;23;20028;-88
2022/11/28 10:51:41;;;;;;;34.03;17.85;;;7.50;99.90;;;;;;6152014;23;20048;-91
2022/11/28 10:54:45;;;;;;;40.30;18.77;;;9.00;99.90;;;;;;6126183;23;20459;-85
2022/11/28 10:57:23;;;;;;;35.88;17.73;;;9.00;99.90;;;;;;6122941;23;20662;-92
2022/11/28 11:00:11;;;;;;;44.22;19.02;;;9.00;99.90;;;;;;6153706;23;20333;-86
2022/11/28 11:02:50;;;;;;;38.70;18.10;;;9.00;99.90;;;;;;6103047;23;20076;-88
2022/11/28 11:05:25;;;;;;;37.88;17.92;;;9.00;99.90;;;;;;6151961;23;20021;-90
2022/11/28 11:08:19;;;;;;;42.83;17.63;;;9.00;99.90;;;;;;6153547;23;20346;-91
2022/11/28 11:11:17;;;;;;;40.38;17.88;;;8.90;99.90;;;;;;6154199;23;20104;-90
2022/11/28 11:14:03;;;;;;;43.08;18.00;;;9.00;99.90;;;;;;6134082;23;20024;-84
2022/11/28 11:16:52;;;;;;;36.88;17.42;;;9.50;99.90;;;;;;6153214;23;20024;-88
2022/11/28 11:19:38;;;;;;;34.00;17.55;;;9.00;99.90;;;;;;6127863;23;20059;-89
2022/11/28 11:22:21;;;;;;;39.50;19.08;;;9.00;99.90;;;;;;6153303;23;20206;-87
2022/11/28 11:25:12;;;;;;;37.92;17.50;;;9.00;99.90;;;;;;6152993;23;20068;-87
2022/11/28 11:27:46;;;;;;;43.63;18.85;;;9.00;99.90;;;;;;6152418;23;20052;-89
2022/11/28 11:30:38;;;;;;;38.83;18.83;;;9.00;99.90;;;;;;6150324;23;20028;-88
2022/11/28 11:33:24;;;;;;;;;;;;;;;;;;;;;
2022/11/28 11:35:50;;;;;;;46.50;19.45;;;9.10;99.90;;;;;;6151353;23;20024;-89
2022/11/28 11:38:19;;;;;;;40.70;19.38;;;9.20;99.90;;;;;;6149722;23;20053;-89
2022/11/28 11:40:48;;;;;;;48.03;20.08;;;9.10;99.90;;;;;;6150501;23;20052;-84
2022/11/28 11:43:53;;;;;;;44.20;18.63;;;9.10;99.90;;;;;;6157282;23;20017;-90
2022/11/28 11:46:18;;;;;;;42.58;19.13;;;9.20;99.90;;;;;;6116816;23;20025;-88
2022/11/28 11:48:46;;;;;;;47.15;19.15;;;9.10;99.90;;;;;;6128343;23;20079;-88
2022/11/28 11:51:24;;;;;;;53.25;20.77;;;7.90;99.90;;;;;;6152752;23;20048;-90
2022/11/28 11:54:15;;;;;;;49.55;20.42;;;9.10;99.90;;;;;;6128377;23;20077;-90
2022/11/28 11:56:45;;;;;;;67.90;20.48;;;9.10;99.90;;;;;;6151335;23;20028;-87
2022/11/28 11:59:44;;;;;;;50.80;20.20;;;9.20;99.90;;;;;;6151774;23;20021;-90
2022/11/28 12:02:34;;;;;;;57.38;19.73;;;9.10;99.90;;;;;;6148626;23;20104;-91
2022/11/28 12:05:17;;;;;;;57.42;19.70;;;9.20;99.90;;;;;;6130913;23;20021;-88
2022/11/28 12:07:48;;;;;;;52.25;18.52;;;9.20;99.90;;;;;;6137231;23;20021;-88
2022/11/28 12:10:20;;;;;;;46.45;19.33;;;9.10;99.90;;;;;;6139905;23;20041;-89
2022/11/28 12:12:45;;;;;;;50.05;20.20;;;9.20;99.90;;;;;;6164341;23;20013;-86
2022/11/28 12:15:20;;;;;;;52.40;20.40;;;9.20;99.90;;;;;;6110807;23;20468;-84
2022/11/28 12:18:14;;;;;;;45.25;19.25;;;9.20;99.90;;;;;;6132591;23;20445;-87
2022/11/28 12:21:12;;;;;;;46.83;18.58;;;9.20;99.90;;;;;;6158331;23;20016;-84
2022/11/28 12:23:56;;;;;;;53.28;19.75;;;9.20;99.90;;;;;;6155611;23;20032;-89
2022/11/28 12:26:44;;;;;;;50.38;19.27;;;9.30;99.90;;;;;;6127511;23;20021;-89
2022/11/28 12:29:34;;;;;;;50.70;19.98;;;9.30;99.90;;;;;;6157909;23;20020;-91
2022/11/28 12:32:16;;;;;;;44.65;19.23;;;9.30;99.90;;;;;;6158049;23;20040;-90
2022/11/28 12:35:06;;;;;;;42.50;19.63;;;9.30;99.90;;;;;;6155462;23;20508;-85
2022/11/28 12:37:35;;;;;;;51.53;19.75;;;;;;;;;;6130028;23;20017;-87
2022/11/28 12:40:06;;;;;;;47.03;20.25;;;9.30;99.90;;;;;;6153909;23;20025;-88
2022/11/28 12:43:13;;;;;;;48.40;19.02;;;9.30;99.90;;;;;;6129672;23;20041;-88
2022/11/28 12:45:58;;;;;;;45.83;18.47;;;9.50;99.90;;;;;;6139868;23;20024;-89
2022/11/28 12:48:43;;;;;;;51.05;18.85;;;9.30;99.90;;;;;;6157030;23;20071;-90
2022/11/28 12:51:50;;;;;;;51.75;18.50;;;9.30;99.90;;;;;;6130401;23;20406;-89
2022/11/28 12:54:27;;;;;;;49.95;17.95;;;9.30;99.90;;;;;;6113131;23;20132;-89
2022/11/28 12:57:02;;;;;;;46.03;18.70;;;9.70;99.90;;;;;;6130436;23;20017;-90
2022/11/28 13:00:00;;;;;;;38.25;18.55;;;9.30;99.90;;;;;;6129511;23;20044;-90
2022/11/28 13:02:53;;;;;;;43.80;17.50;;;9.80;99.90;;;;;;6145917;23;20349;-89
2022/11/28 13:05:33;;;;;;;37.42;17.17;;;9.40;99.90;;;;;;6131459;23;20021;-88
2022/11/28 13:08:24;;;;;;;43.03;17.90;;;9.30;99.90;;;;;;6155579;23;20021;-88
2022/11/28 13:11:19;;;;;;;41.80;16.17;;;9.00;99.90;;;;;;6126959;23;20021;-88
2022/11/28 13:17:36;;;;;;;46.35;17.67;;;9.30;99.90;;;;;;6087547;23;20021;-90
2022/11/28 13:23:58;;;;;;;51.60;18.55;;;9.50;99.90;;;;;;6152080;23;20076;-90
2022/11/28 13:27:22;;;;;;;67.20;18.88;;;8.10;99.90;;;;;;6113058;23;20024;-89